createdAt,value
2018-06-13T00:02:05.775Z,14.60
2018-06-13T00:04:34.337Z,14.60
2018-06-13T00:14:27.633Z,14.50
2018-06-13T00:16:56.134Z,14.50
2018-06-13T00:19:24.712Z,14.60
2018-06-13T00:21:53.251Z,14.60
2018-06-13T00:24:21.771Z,14.50
2018-06-13T00:26:50.271Z,14.50
2018-06-13T00:29:18.803Z,14.50
2018-06-13T00:31:47.376Z,14.50
2018-06-13T00:36:44.257Z,14.50
2018-06-13T00:39:12.782Z,14.50
2018-06-13T00:41:41.391Z,14.50
2018-06-13T00:44:09.913Z,14.50
2018-06-13T00:49:06.564Z,14.40
2018-06-13T00:51:35.093Z,14.30
2018-06-13T00:54:03.655Z,14.30
2018-06-13T00:56:32.325Z,14.30
2018-06-13T00:59:00.826Z,14.30
2018-06-13T01:01:30.134Z,14.30
2018-06-13T01:03:58.656Z,14.30
2018-06-13T01:06:28.121Z,14.20
2018-06-13T01:08:56.622Z,14.20
2018-06-13T01:11:25.191Z,14.20
2018-06-13T01:16:21.904Z,14.20
2018-06-13T01:18:50.392Z,14.20
2018-06-13T01:21:21.084Z,14.20
2018-06-13T01:23:49.681Z,14.20
2018-06-13T01:26:19.444Z,14.20
2018-06-13T01:28:47.916Z,14.30
2018-06-13T01:31:16.418Z,14.30
2018-06-13T01:33:44.969Z,14.20
2018-06-13T01:36:13.467Z,14.30
2018-06-13T01:38:42.024Z,14.30
2018-06-13T01:43:38.707Z,14.30
2018-06-13T01:46:07.159Z,14.30
2018-06-13T01:48:35.583Z,14.20
2018-06-13T01:51:04.052Z,14.20
2018-06-13T01:56:00.619Z,14.20
2018-06-13T01:58:29.081Z,14.10
2018-06-13T02:00:57.520Z,14.20
2018-06-13T02:03:25.967Z,14.10
2018-06-13T02:05:54.443Z,14.10
2018-06-13T02:10:51.103Z,14.00
2018-06-13T02:13:19.551Z,14.00
2018-06-13T02:15:48.041Z,14.00
2018-06-13T02:18:16.465Z,13.90
2018-06-13T02:20:44.938Z,14.00
2018-06-13T02:25:41.523Z,14.00
2018-06-13T02:28:10.209Z,13.90
2018-06-13T02:30:38.667Z,13.90
2018-06-13T02:35:35.334Z,13.80
2018-06-13T02:38:04.347Z,13.80
2018-06-13T02:43:00.906Z,13.80
2018-06-13T02:45:29.365Z,13.70
2018-06-13T02:47:57.832Z,13.70
2018-06-13T02:50:26.267Z,13.70
2018-06-13T02:52:54.729Z,13.70
2018-06-13T02:55:23.169Z,13.70
2018-06-13T02:57:51.622Z,13.70
2018-06-13T03:03:08.283Z,13.60
2018-06-13T03:05:36.819Z,13.70
2018-06-13T03:08:05.335Z,13.70
2018-06-13T03:10:33.820Z,13.70
2018-06-13T03:13:02.262Z,13.70
2018-06-13T03:15:30.794Z,13.60
2018-06-13T03:17:59.242Z,13.70
2018-06-13T03:20:27.692Z,13.70
2018-06-13T03:22:56.189Z,13.70
2018-06-13T03:25:24.708Z,13.70
2018-06-13T03:27:53.184Z,13.70
2018-06-13T03:30:21.686Z,13.70
2018-06-13T03:32:50.556Z,13.70
2018-06-13T03:35:19.054Z,13.70
2018-06-13T03:37:47.558Z,13.70
2018-06-13T03:40:16.026Z,13.70
2018-06-13T03:42:44.510Z,13.70
2018-06-13T03:45:12.991Z,13.80
2018-06-13T03:47:41.481Z,13.80
2018-06-13T03:50:11.338Z,13.80
2018-06-13T03:52:40.177Z,13.80
2018-06-13T03:55:08.666Z,13.80
2018-06-13T03:57:37.146Z,13.80
2018-06-13T04:00:05.713Z,13.80
2018-06-13T04:02:34.144Z,13.80
2018-06-13T04:05:02.595Z,13.80
2018-06-13T04:07:31.169Z,13.90
2018-06-13T04:09:59.692Z,13.90
2018-06-13T04:12:28.160Z,13.90
2018-06-13T04:14:56.601Z,13.90
2018-06-13T04:17:25.046Z,13.90
2018-06-13T04:19:53.549Z,13.90
2018-06-13T04:22:22.062Z,13.90
2018-06-13T04:24:50.454Z,13.90
2018-06-13T04:27:18.929Z,13.90
2018-06-13T04:29:47.410Z,13.90
2018-06-13T04:32:15.947Z,13.90
2018-06-13T04:34:44.430Z,13.90
2018-06-13T04:37:12.904Z,13.90
2018-06-13T04:39:41.375Z,14.00
2018-06-13T04:42:09.862Z,14.00
2018-06-13T04:44:38.290Z,14.10
2018-06-13T04:47:06.761Z,14.10
2018-06-13T04:49:35.193Z,14.10
2018-06-13T04:52:03.678Z,14.20
2018-06-13T04:54:32.136Z,14.20
2018-06-13T04:57:00.650Z,14.30
2018-06-13T04:59:29.277Z,14.30
2018-06-13T05:01:57.739Z,14.40
2018-06-13T05:04:26.229Z,14.40
2018-06-13T05:06:54.722Z,14.50
2018-06-13T05:09:23.211Z,14.60
2018-06-13T05:11:51.669Z,14.70
2018-06-13T05:14:20.135Z,14.70
2018-06-13T05:16:49.020Z,14.80
2018-06-13T05:19:17.912Z,14.80
2018-06-13T05:21:46.363Z,14.80
2018-06-13T05:24:14.842Z,14.90
2018-06-13T05:26:43.349Z,14.90
2018-06-13T05:29:11.835Z,14.90
2018-06-13T05:31:40.342Z,14.90
2018-06-13T05:34:08.805Z,14.90
2018-06-13T05:36:37.278Z,15.00
2018-06-13T05:39:07.700Z,14.90
2018-06-13T05:41:36.250Z,15.00
2018-06-13T05:44:04.692Z,15.00
2018-06-13T05:46:33.139Z,15.00
2018-06-13T05:49:01.602Z,15.00
2018-06-13T05:51:30.048Z,15.00
2018-06-13T05:53:58.553Z,15.00
2018-06-13T05:56:26.971Z,15.00
2018-06-13T05:58:55.414Z,15.00
2018-06-13T06:01:23.875Z,15.00
2018-06-13T06:03:52.302Z,15.10
2018-06-13T06:06:20.768Z,15.10
2018-06-13T06:08:49.191Z,15.20
2018-06-13T06:11:17.645Z,15.20
2018-06-13T06:13:46.065Z,15.30
2018-06-13T06:16:14.492Z,15.30
2018-06-13T06:18:42.925Z,15.40
2018-06-13T06:21:11.406Z,15.50
2018-06-13T06:23:39.883Z,15.50
2018-06-13T06:26:08.415Z,15.60
2018-06-13T06:28:36.900Z,15.70
2018-06-13T06:31:05.362Z,15.80
2018-06-13T06:36:02.807Z,16.00
2018-06-13T06:38:31.283Z,16.10
2018-06-13T06:40:59.732Z,16.20
2018-06-13T06:43:28.323Z,16.30
2018-06-13T06:45:56.775Z,16.40
2018-06-13T06:48:25.166Z,16.40
2018-06-13T06:50:53.633Z,16.50
2018-06-13T06:53:22.059Z,16.60
2018-06-13T06:55:50.520Z,16.70
2018-06-13T06:58:18.999Z,16.80
2018-06-13T07:00:47.415Z,16.80
2018-06-13T07:03:15.862Z,16.90
2018-06-13T07:05:44.376Z,16.90
2018-06-13T07:08:12.874Z,16.90
2018-06-13T07:10:41.335Z,16.90
2018-06-13T07:13:09.850Z,16.90
2018-06-13T07:15:38.307Z,16.80
2018-06-13T07:18:06.818Z,16.80
2018-06-13T07:20:35.253Z,16.80
2018-06-13T07:23:03.702Z,16.80
2018-06-13T07:25:32.132Z,16.80
2018-06-13T07:28:00.614Z,16.80
2018-06-13T07:30:29.105Z,16.70
2018-06-13T07:32:57.925Z,16.70
2018-06-13T07:35:26.606Z,16.60
2018-06-13T07:37:55.031Z,16.50
2018-06-13T07:40:23.506Z,16.60
2018-06-13T07:42:52.022Z,16.50
2018-06-13T07:45:20.531Z,16.50
2018-06-13T07:47:49.015Z,16.50
2018-06-13T07:50:17.515Z,16.50
2018-06-13T07:52:45.987Z,16.50
2018-06-13T07:55:14.517Z,16.60
2018-06-13T07:57:43.028Z,16.70
2018-06-13T08:00:11.574Z,16.70
2018-06-13T08:02:40.083Z,16.70
2018-06-13T08:05:08.595Z,16.70
2018-06-13T08:07:37.075Z,16.70
2018-06-13T08:10:05.653Z,16.70
2018-06-13T08:12:34.122Z,16.70
2018-06-13T08:15:02.580Z,16.70
2018-06-13T08:17:31.007Z,16.60
2018-06-13T08:19:59.454Z,16.60
2018-06-13T08:22:27.897Z,16.60
2018-06-13T08:24:56.379Z,16.60
2018-06-13T08:27:24.941Z,16.60
2018-06-13T08:29:53.408Z,16.50
2018-06-13T08:32:21.898Z,16.50
2018-06-13T08:34:50.622Z,16.60
2018-06-13T08:37:19.063Z,16.60
2018-06-13T08:39:47.543Z,16.70
2018-06-13T08:42:16.007Z,16.80
2018-06-13T08:44:44.414Z,16.90
2018-06-13T08:47:12.904Z,17.00
2018-06-13T08:49:41.414Z,17.20
2018-06-13T08:52:09.957Z,17.40
2018-06-13T08:54:38.392Z,17.50
2018-06-13T08:57:06.878Z,17.70
2018-06-13T08:59:35.337Z,17.90
2018-06-13T09:02:03.808Z,18.00
2018-06-13T09:04:32.279Z,18.10
2018-06-13T09:07:00.864Z,18.30
2018-06-13T09:09:29.289Z,18.40
2018-06-13T09:11:57.772Z,18.50
2018-06-13T09:14:26.223Z,18.40
2018-06-13T09:16:54.716Z,18.40
2018-06-13T09:19:23.158Z,18.40
2018-06-13T09:21:51.630Z,18.50
2018-06-13T09:24:20.052Z,18.60
2018-06-13T09:26:48.506Z,18.60
2018-06-13T09:29:17.050Z,18.60
2018-06-13T09:31:45.555Z,18.60
2018-06-13T09:34:14.017Z,18.50
2018-06-13T09:36:42.551Z,18.50
2018-06-13T09:39:11.008Z,18.60
2018-06-13T09:41:44.779Z,18.70
2018-06-13T09:44:13.359Z,18.80
2018-06-13T09:46:48.916Z,18.90
2018-06-13T09:49:10.320Z,18.90
2018-06-13T09:51:38.800Z,18.90
2018-06-13T09:54:07.251Z,18.90
2018-06-13T09:56:35.758Z,18.90
2018-06-13T09:59:20.468Z,18.70
2018-06-13T10:01:55.080Z,18.60
2018-06-13T10:04:23.599Z,18.50
2018-06-13T10:06:52.236Z,18.70
2018-06-13T10:09:20.704Z,18.90
2018-06-13T10:11:49.186Z,19.10
2018-06-13T10:14:17.781Z,19.40
2018-06-13T10:16:46.259Z,19.50
2018-06-13T10:19:14.781Z,19.60
2018-06-13T10:21:43.229Z,19.50
2018-06-13T10:24:11.705Z,19.40
2018-06-13T10:26:40.203Z,19.40
2018-06-13T10:29:08.680Z,19.40
2018-06-13T10:31:37.170Z,19.30
2018-06-13T10:34:05.613Z,19.30
2018-06-13T10:36:34.127Z,19.30
2018-06-13T10:39:02.594Z,19.30
2018-06-13T10:41:31.134Z,19.20
2018-06-13T10:43:59.584Z,19.10
2018-06-13T10:46:28.203Z,19.00
2018-06-13T10:48:56.618Z,19.00
2018-06-13T10:51:25.103Z,18.90
2018-06-13T10:53:53.612Z,18.90
2018-06-13T10:56:22.177Z,19.00
2018-06-13T10:58:50.615Z,19.20
2018-06-13T11:01:19.088Z,19.30
2018-06-13T11:03:47.568Z,19.40
2018-06-13T11:06:16.055Z,19.50
2018-06-13T11:08:44.572Z,19.70
2018-06-13T11:11:13.059Z,19.80
2018-06-13T11:13:41.542Z,19.80
2018-06-13T11:16:09.959Z,19.80
2018-06-13T11:18:38.422Z,19.80
2018-06-13T11:21:06.929Z,19.60
2018-06-13T11:23:35.378Z,19.30
2018-06-13T11:26:03.967Z,19.10
2018-06-13T11:28:32.431Z,19.10
2018-06-13T11:31:00.892Z,19.00
2018-06-13T11:33:29.425Z,18.90
2018-06-13T11:38:26.090Z,19.00
2018-06-13T11:40:54.528Z,19.00
2018-06-13T11:43:23.052Z,19.00
2018-06-13T11:45:51.498Z,19.00
2018-06-13T11:48:19.966Z,18.90
2018-06-13T11:50:48.451Z,18.90
2018-06-13T11:53:17.106Z,18.90
2018-06-13T11:58:13.889Z,18.70
2018-06-13T12:00:42.367Z,18.60
2018-06-13T12:03:10.827Z,18.50
2018-06-13T12:05:39.347Z,18.30
2018-06-13T12:08:07.802Z,18.20
2018-06-13T12:10:36.261Z,18.10
2018-06-13T12:13:04.912Z,18.00
2018-06-13T12:15:33.393Z,17.90
2018-06-13T12:18:01.843Z,17.90
2018-06-13T12:20:30.281Z,17.90
2018-06-13T12:22:58.894Z,17.90
2018-06-13T12:25:27.364Z,17.90
2018-06-13T12:27:55.942Z,18.00
2018-06-13T12:30:25.307Z,18.00
2018-06-13T12:32:54.050Z,18.00
2018-06-13T12:35:22.519Z,18.10
2018-06-13T12:37:51.037Z,18.10
2018-06-13T12:40:19.511Z,18.30
2018-06-13T12:42:47.958Z,18.50
2018-06-13T12:45:16.458Z,18.60
2018-06-13T12:47:44.954Z,18.70
2018-06-13T12:50:13.506Z,18.80
2018-06-13T12:52:42.070Z,18.90
2018-06-13T12:55:10.543Z,19.00
2018-06-13T12:57:43.448Z,19.00
2018-06-13T13:00:12.571Z,19.00
2018-06-13T13:02:41.035Z,19.00
2018-06-13T13:05:10.670Z,19.00
2018-06-13T13:07:39.194Z,19.10
2018-06-13T13:10:08.367Z,19.10
2018-06-13T13:12:36.847Z,19.20
2018-06-13T13:15:05.661Z,19.20
2018-06-13T13:17:34.165Z,19.20
2018-06-13T13:20:02.904Z,19.30
2018-06-13T13:22:31.352Z,19.30
2018-06-13T13:25:00.245Z,19.30
2018-06-13T13:27:28.828Z,19.30
2018-06-13T13:29:57.468Z,19.30
2018-06-13T13:32:29.338Z,19.50
2018-06-13T13:34:58.444Z,19.50
2018-06-13T13:37:26.975Z,19.60
2018-06-13T13:39:55.531Z,19.60
2018-06-13T13:42:24.084Z,19.60
2018-06-13T13:44:52.592Z,19.60
2018-06-13T13:47:21.136Z,19.60
2018-06-13T13:49:49.646Z,19.50
2018-06-13T13:52:18.175Z,19.40
2018-06-13T13:54:47.004Z,19.30
2018-06-13T13:57:15.525Z,19.30
2018-06-13T13:59:44.006Z,19.20
2018-06-13T14:02:12.593Z,19.20
2018-06-13T14:04:41.212Z,19.20
2018-06-13T14:07:09.810Z,19.20
2018-06-13T14:09:38.356Z,19.10
2018-06-13T14:12:07.077Z,19.10
2018-06-13T14:14:35.726Z,19.10
2018-06-13T14:17:04.391Z,19.10
2018-06-13T14:19:36.658Z,19.10
2018-06-13T14:22:05.260Z,19.20
2018-06-13T14:24:34.786Z,19.20
2018-06-13T14:27:03.372Z,19.20
2018-06-13T14:29:31.903Z,19.40
2018-06-13T14:32:02.439Z,19.50
2018-06-13T14:34:34.029Z,19.60
2018-06-13T14:37:02.587Z,19.60
2018-06-13T14:39:31.693Z,19.70
2018-06-13T14:42:00.223Z,19.70
2018-06-13T14:44:31.499Z,19.70
2018-06-13T14:47:00.077Z,19.60
2018-06-13T14:49:28.541Z,19.50
2018-06-13T14:51:58.261Z,19.50
2018-06-13T14:54:26.990Z,19.60
2018-06-13T14:56:55.579Z,19.60
2018-06-13T14:59:24.076Z,19.90
2018-06-13T15:01:52.687Z,19.90
2018-06-13T15:04:26.363Z,19.90
2018-06-13T15:07:00.502Z,19.80
2018-06-13T15:09:29.033Z,19.70
2018-06-13T15:11:57.465Z,19.60
2018-06-13T15:14:25.960Z,19.40
2018-06-13T15:16:54.407Z,19.40
2018-06-13T15:19:22.898Z,19.40
2018-06-13T15:21:53.241Z,19.30
2018-06-13T15:24:23.641Z,19.30
2018-06-13T15:26:58.134Z,19.20
2018-06-13T15:29:29.809Z,19.20
2018-06-13T15:31:58.281Z,19.20
2018-06-13T15:34:27.013Z,19.20
2018-06-13T15:36:55.674Z,19.10
2018-06-13T15:39:25.724Z,19.10
2018-06-13T15:41:54.259Z,19.10
2018-06-13T15:46:52.109Z,18.90
2018-06-13T15:49:20.634Z,18.90
2018-06-13T15:51:49.140Z,18.80
2018-06-13T15:54:19.636Z,18.80
2018-06-13T15:56:48.182Z,18.70
2018-06-13T15:59:17.718Z,18.70
2018-06-13T16:01:48.493Z,18.60
2018-06-13T16:04:17.153Z,18.60
2018-06-13T16:06:45.714Z,18.50
2018-06-13T16:09:14.171Z,18.40
2018-06-13T16:11:42.716Z,18.30
2018-06-13T16:14:11.280Z,18.30
2018-06-13T16:16:39.800Z,18.30
2018-06-13T16:19:08.291Z,18.20
2018-06-13T16:21:36.814Z,18.20
2018-06-13T16:24:05.302Z,18.20
2018-06-13T16:26:33.851Z,18.20
2018-06-13T16:29:02.505Z,18.20
2018-06-13T16:31:31.637Z,18.20
2018-06-13T16:34:00.477Z,18.20
2018-06-13T16:36:28.958Z,18.20
2018-06-13T16:38:57.451Z,18.20
2018-06-13T16:41:26.699Z,18.20
2018-06-13T16:43:55.205Z,18.20
2018-06-13T16:46:23.671Z,18.10
2018-06-13T16:51:31.722Z,18.10
2018-06-13T16:54:13.594Z,18.00
2018-06-13T16:56:42.790Z,18.00
2018-06-13T16:59:11.280Z,18.00
2018-06-13T17:01:39.777Z,18.00
2018-06-13T17:04:08.397Z,18.00
2018-06-13T17:06:36.853Z,17.90
2018-06-13T17:09:06.960Z,18.00
2018-06-13T17:11:35.445Z,18.00
2018-06-13T17:14:04.003Z,18.00
2018-06-13T17:16:32.485Z,18.00
2018-06-13T17:19:00.944Z,17.90
2018-06-13T17:21:29.382Z,17.90
2018-06-13T17:23:57.838Z,17.90
2018-06-13T17:26:26.293Z,17.90
2018-06-13T17:28:54.827Z,17.80
2018-06-13T17:31:23.261Z,17.70
2018-06-13T17:33:51.712Z,17.70
2018-06-13T17:36:20.248Z,17.60
2018-06-13T17:38:48.731Z,17.50
2018-06-13T17:41:17.186Z,17.60
2018-06-13T17:43:45.654Z,17.50
2018-06-13T17:46:14.145Z,17.50
2018-06-13T17:48:42.597Z,17.50
2018-06-13T17:51:11.094Z,17.40
2018-06-13T17:56:07.715Z,17.40
2018-06-13T17:58:36.206Z,17.40
2018-06-13T18:01:04.738Z,17.30
2018-06-13T18:03:33.188Z,17.20
2018-06-13T18:06:01.667Z,17.20
2018-06-13T18:08:30.103Z,17.20
2018-06-13T18:10:58.665Z,17.20
2018-06-13T18:13:27.139Z,17.20
2018-06-13T18:15:55.610Z,17.10
2018-06-13T18:18:24.077Z,17.10
2018-06-13T18:20:52.554Z,17.00
2018-06-13T18:23:21.153Z,17.00
2018-06-13T18:25:49.598Z,16.90
2018-06-13T18:28:18.168Z,16.90
2018-06-13T18:30:46.728Z,16.80
2018-06-13T18:33:15.205Z,16.80
2018-06-13T18:35:43.750Z,16.70
2018-06-13T18:38:12.243Z,16.70
2018-06-13T18:40:40.704Z,16.60
2018-06-13T18:45:37.377Z,16.50
2018-06-13T18:48:05.865Z,16.50
2018-06-13T18:50:34.379Z,16.50
2018-06-13T18:53:02.872Z,16.40
2018-06-13T18:55:31.384Z,16.40
2018-06-13T18:57:59.914Z,16.40
2018-06-13T19:00:28.459Z,16.30
2018-06-13T19:02:56.978Z,16.30
2018-06-13T19:05:25.616Z,16.30
2018-06-13T19:07:54.126Z,16.20
2018-06-13T19:10:22.609Z,16.20
2018-06-13T19:12:51.105Z,16.20
2018-06-13T19:15:19.612Z,16.20
2018-06-13T19:17:48.083Z,16.10
2018-06-13T19:20:16.586Z,16.10
2018-06-13T19:22:45.010Z,16.10
2018-06-13T19:25:13.528Z,16.10
2018-06-13T19:27:41.975Z,16.10
2018-06-13T19:30:10.543Z,16.00
2018-06-13T19:32:39.055Z,16.00
2018-06-13T19:35:07.543Z,16.00
2018-06-13T19:37:35.983Z,16.00
2018-06-13T19:42:32.704Z,15.90
2018-06-13T19:45:01.185Z,15.90
2018-06-13T19:47:34.978Z,15.90
2018-06-13T19:50:03.553Z,15.90
2018-06-13T19:52:37.275Z,15.90
2018-06-13T19:55:10.875Z,15.90
2018-06-13T19:57:39.344Z,15.80
2018-06-13T20:00:07.846Z,15.80
2018-06-13T20:02:41.801Z,15.80
2018-06-13T20:05:15.494Z,15.80
2018-06-13T20:07:44.004Z,15.70
2018-06-13T20:10:12.500Z,15.70
2018-06-13T20:12:46.214Z,15.80
2018-06-13T20:15:20.177Z,15.80
2018-06-13T20:17:53.919Z,15.80
2018-06-13T20:20:22.416Z,15.80
2018-06-13T20:22:50.867Z,15.70
2018-06-13T20:25:25.174Z,15.70
2018-06-13T20:27:59.015Z,15.70
2018-06-13T20:30:32.946Z,15.70
2018-06-13T20:33:01.545Z,15.70
2018-06-13T20:35:29.971Z,15.70
2018-06-13T20:37:58.451Z,15.70
2018-06-13T20:40:27.015Z,15.60
2018-06-13T20:42:55.550Z,15.60
2018-06-13T20:45:24.004Z,15.60
2018-06-13T20:47:52.779Z,15.50
2018-06-13T20:50:21.292Z,15.50
2018-06-13T20:52:49.834Z,15.40
2018-06-13T20:55:18.332Z,15.30
2018-06-13T20:57:46.832Z,15.20
2018-06-13T21:00:15.361Z,15.10
2018-06-13T21:02:43.840Z,15.10
2018-06-13T21:05:12.338Z,15.00
2018-06-13T21:07:40.826Z,15.00
2018-06-13T21:10:09.298Z,15.00
2018-06-13T21:12:37.785Z,15.00
2018-06-13T21:15:06.271Z,15.00
2018-06-13T21:17:34.871Z,15.10
2018-06-13T21:20:03.503Z,15.10
2018-06-13T21:22:31.943Z,15.10
2018-06-13T21:25:00.420Z,15.20
2018-06-13T21:27:28.928Z,15.20
2018-06-13T21:29:57.478Z,15.20
2018-06-13T21:32:26.016Z,15.20
2018-06-13T21:34:54.589Z,15.20
2018-06-13T21:37:23.049Z,15.20
2018-06-13T21:39:51.486Z,15.30
2018-06-13T21:42:19.977Z,15.20
2018-06-13T21:44:48.419Z,15.20
2018-06-13T21:47:17.083Z,15.20
2018-06-13T21:49:45.515Z,15.20
2018-06-13T21:52:14.003Z,15.10
2018-06-13T21:54:42.531Z,15.10
2018-06-13T21:57:11.059Z,15.10
2018-06-13T21:59:39.547Z,15.00
2018-06-13T22:02:08.073Z,14.90
2018-06-13T22:04:36.576Z,14.90
2018-06-13T22:07:05.091Z,14.90
2018-06-13T22:09:33.622Z,14.90
2018-06-13T22:12:02.072Z,14.90
2018-06-13T22:14:30.596Z,14.90
2018-06-13T22:16:59.045Z,14.90
2018-06-13T22:19:27.609Z,14.90
2018-06-13T22:21:56.065Z,14.90
2018-06-13T22:24:24.602Z,15.00
2018-06-13T22:26:53.110Z,15.00
2018-06-13T22:29:21.652Z,15.00
2018-06-13T22:34:18.374Z,15.00
2018-06-13T22:36:47.197Z,15.00
2018-06-13T22:39:15.854Z,15.00
2018-06-13T22:41:44.428Z,15.00
2018-06-13T22:44:12.997Z,15.00
2018-06-13T22:46:41.535Z,15.00
2018-06-13T22:49:10.142Z,15.00
2018-06-13T22:51:38.767Z,15.00
2018-06-13T22:54:07.441Z,15.00
2018-06-13T22:56:35.957Z,15.10
2018-06-13T22:59:04.407Z,15.00
2018-06-13T23:01:33.060Z,15.00
2018-06-13T23:04:01.581Z,15.00
2018-06-13T23:06:30.072Z,15.00
2018-06-13T23:08:58.636Z,15.00
2018-06-13T23:11:27.238Z,15.00
2018-06-13T23:13:55.689Z,15.00
2018-06-13T23:16:24.275Z,15.00
2018-06-13T23:18:52.785Z,15.00
2018-06-13T23:21:21.273Z,15.00
2018-06-13T23:23:49.882Z,15.00
2018-06-13T23:26:18.396Z,15.00
2018-06-13T23:28:47.065Z,14.90
2018-06-13T23:31:15.611Z,14.90
2018-06-13T23:33:44.202Z,14.90
2018-06-13T23:36:12.758Z,14.90
2018-06-13T23:38:41.320Z,14.90
2018-06-13T23:41:09.825Z,14.90
2018-06-13T23:43:38.362Z,14.90
2018-06-13T23:46:06.901Z,14.90
2018-06-13T23:48:35.471Z,14.90
2018-06-13T23:51:04.026Z,15.00
2018-06-13T23:53:32.496Z,15.00
2018-06-13T23:56:00.967Z,15.00
2018-06-13T23:58:29.453Z,15.00
